sensor_id;sensor_type;location;lat;lon;timestamp;pressure;altitude;pressure_sealevel;temperature;humidity
58975;BME280;44751;52.236;5.178;2023-04-07T06:14:55;101429.88;;;8.64;100.00
58975;BME280;44751;52.236;5.178;2023-04-07T06:17:24;101440.88;;;8.71;100.00
58975;BME280;44751;52.236;5.178;2023-04-07T06:19:50;101434.41;;;8.82;100.00
58975;BME280;44751;52.236;5.178;2023-04-07T06:22:20;101441.50;;;8.83;100.00
58975;BME280;44751;52.236;5.178;2023-04-07T06:24:47;101439.41;;;8.76;100.00
58975;BME280;44751;52.236;5.178;2023-04-07T06:27:14;101451.19;;;8.75;100.00
58975;BME280;44751;52.236;5.178;2023-04-07T06:29:41;101452.88;;;8.76;100.00
58975;BME280;44751;52.236;5.178;2023-04-07T06:32:09;101442.97;;;8.77;100.00
58975;BME280;44751;52.236;5.178;2023-04-07T06:34:38;101445.97;;;8.74;100.00
58975;BME280;44751;52.236;5.178;2023-04-07T06:37:06;101448.47;;;8.57;100.00
58975;BME280;44751;52.236;5.178;2023-04-07T06:39:32;101442.75;;;8.70;100.00
58975;BME280;44751;52.236;5.178;2023-04-07T06:41:59;101452.03;;;8.76;100.00
58975;BME280;44751;52.236;5.178;2023-04-07T06:44:40;101458.41;;;8.75;100.00
58975;BME280;44751;52.236;5.178;2023-04-07T06:47:06;101453.34;;;8.72;100.00
58975;BME280;44751;52.236;5.178;2023-04-07T06:49:34;101461.72;;;8.69;100.00
58975;BME280;44751;52.236;5.178;2023-04-07T06:52:00;101457.34;;;8.68;100.00
58975;BME280;44751;52.236;5.178;2023-04-07T06:54:41;101467.78;;;8.89;100.00
58975;BME280;44751;52.236;5.178;2023-04-07T06:57:10;101467.41;;;9.02;100.00
58975;BME280;44751;52.236;5.178;2023-04-07T06:59:39;101470.81;;;9.04;100.00
58975;BME280;44751;52.236;5.178;2023-04-07T07:02:13;101467.19;;;9.13;100.00
58975;BME280;44751;52.236;5.178;2023-04-07T07:04:39;101482.72;;;9.20;100.00
58975;BME280;44751;52.236;5.178;2023-04-07T07:07:06;101485.66;;;9.08;100.00
58975;BME280;44751;52.236;5.178;2023-04-07T07:09:32;101476.09;;;8.96;100.00
58975;BME280;44751;52.236;5.178;2023-04-07T07:11:59;101481.97;;;8.91;100.00
58975;BME280;44751;52.236;5.178;2023-04-07T07:14:27;101483.72;;;8.82;100.00
58975;BME280;44751;52.236;5.178;2023-04-07T07:17:01;101481.25;;;8.89;100.00
58975;BME280;44751;52.236;5.178;2023-04-07T07:19:34;101488.66;;;9.05;100.00
58975;BME280;44751;52.236;5.178;2023-04-07T07:22:01;101498.03;;;9.01;100.00
58975;BME280;44751;52.236;5.178;2023-04-07T07:24:29;101492.72;;;9.09;100.00
58975;BME280;44751;52.236;5.178;2023-04-07T07:26:58;101496.03;;;9.21;100.00
58975;BME280;44751;52.236;5.178;2023-04-07T07:29:25;101509.47;;;9.21;100.00
58975;BME280;44751;52.236;5.178;2023-04-07T07:31:52;101504.66;;;9.07;100.00
58975;BME280;44751;52.236;5.178;2023-04-07T07:34:19;101496.25;;;9.10;100.00
58975;BME280;44751;52.236;5.178;2023-04-07T07:36:48;101498.72;;;9.03;100.00
58975;BME280;44751;52.236;5.178;2023-04-07T07:39:15;101502.78;;;9.07;100.00
58975;BME280;44751;52.236;5.178;2023-04-07T07:41:45;101507.50;;;9.23;100.00
58975;BME280;44751;52.236;5.178;2023-04-07T07:44:15;101513.88;;;9.04;100.00
58975;BME280;44751;52.236;5.178;2023-04-07T07:46:47;101521.03;;;9.13;100.00
58975;BME280;44751;52.236;5.178;2023-04-07T07:49:22;101513.88;;;9.04;100.00
58975;BME280;44751;52.236;5.178;2023-04-07T07:51:49;101513.25;;;9.10;100.00
58975;BME280;44751;52.236;5.178;2023-04-07T07:54:16;101523.34;;;9.08;100.00
58975;BME280;44751;52.236;5.178;2023-04-07T07:56:44;101527.09;;;9.15;100.00
58975;BME280;44751;52.236;5.178;2023-04-07T07:59:11;101524.34;;;9.25;100.00
58975;BME280;44751;52.236;5.178;2023-04-07T08:01:37;101527.97;;;9.34;100.00
58975;BME280;44751;52.236;5.178;2023-04-07T08:04:06;101533.56;;;9.23;100.00
58975;BME280;44751;52.236;5.178;2023-04-07T08:06:33;101522.72;;;9.14;100.00
58975;BME280;44751;52.236;5.178;2023-04-07T08:09:05;101536.47;;;9.11;100.00
58975;BME280;44751;52.236;5.178;2023-04-07T08:11:32;101537.25;;;9.22;100.00
58975;BME280;44751;52.236;5.178;2023-04-07T08:13:58;101539.72;;;9.15;100.00
58975;BME280;44751;52.236;5.178;2023-04-07T08:16:25;101544.25;;;9.33;100.00
58975;BME280;44751;52.236;5.178;2023-04-07T08:18:52;101546.13;;;9.50;100.00
58975;BME280;44751;52.236;5.178;2023-04-07T08:21:21;101542.81;;;9.38;100.00
58975;BME280;44751;52.236;5.178;2023-04-07T08:23:47;101538.28;;;9.39;100.00
58975;BME280;44751;52.236;5.178;2023-04-07T08:26:14;101548.34;;;9.55;100.00
58975;BME280;44751;52.236;5.178;2023-04-07T08:28:41;101548.91;;;9.22;100.00
58975;BME280;44751;52.236;5.178;2023-04-07T08:31:09;101545.13;;;9.33;100.00
58975;BME280;44751;52.236;5.178;2023-04-07T08:33:38;101565.50;;;9.36;100.00
58975;BME280;44751;52.236;5.178;2023-04-07T08:36:05;101563.66;;;9.54;100.00
58975;BME280;44751;52.236;5.178;2023-04-07T08:38:31;101557.66;;;9.61;100.00
58975;BME280;44751;52.236;5.178;2023-04-07T08:41:19;101567.41;;;9.62;100.00
58975;BME280;44751;52.236;5.178;2023-04-07T08:43:48;101556.56;;;9.53;100.00
58975;BME280;44751;52.236;5.178;2023-04-07T08:46:18;101563.03;;;9.61;100.00
58975;BME280;44751;52.236;5.178;2023-04-07T08:48:51;101559.81;;;9.57;100.00
58975;BME280;44751;52.236;5.178;2023-04-07T08:51:29;101566.25;;;9.46;100.00
58975;BME280;44751;52.236;5.178;2023-04-07T08:54:06;101570.81;;;9.46;100.00
58975;BME280;44751;52.236;5.178;2023-04-07T08:56:37;101567.09;;;9.65;100.00
58975;BME280;44751;52.236;5.178;2023-04-07T08:59:06;101562.50;;;9.57;100.00
58975;BME280;44751;52.236;5.178;2023-04-07T09:01:34;101566.88;;;9.58;100.00
58975;BME280;44751;52.236;5.178;2023-04-07T09:04:09;101563.88;;;9.79;100.00
58975;BME280;44751;52.236;5.178;2023-04-07T09:06:36;101568.41;;;9.79;100.00
58975;BME280;44751;52.236;5.178;2023-04-07T09:09:04;101574.09;;;9.76;100.00
58975;BME280;44751;52.236;5.178;2023-04-07T09:11:37;101587.38;;;9.95;100.00
58975;BME280;44751;52.236;5.178;2023-04-07T09:14:06;101587.41;;;10.22;100.00
58975;BME280;44751;52.236;5.178;2023-04-07T09:16:33;101590.03;;;10.40;100.00
58975;BME280;44751;52.236;5.178;2023-04-07T09:19:00;101587.91;;;10.17;100.00
58975;BME280;44751;52.236;5.178;2023-04-07T09:21:46;101589.06;;;9.97;100.00
58975;BME280;44751;52.236;5.178;2023-04-07T09:24:28;101595.00;;;10.00;100.00
58975;BME280;44751;52.236;5.178;2023-04-07T09:29:40;101593.66;;;10.23;100.00
58975;BME280;44751;52.236;5.178;2023-04-07T09:32:36;101593.53;;;10.06;100.00
58975;BME280;44751;52.236;5.178;2023-04-07T09:35:18;101604.22;;;10.16;100.00
58975;BME280;44751;52.236;5.178;2023-04-07T09:38:20;101593.34;;;9.99;100.00
58975;BME280;44751;52.236;5.178;2023-04-07T09:40:47;101592.28;;;10.18;100.00
58975;BME280;44751;52.236;5.178;2023-04-07T09:43:18;101597.94;;;10.07;100.00
58975;BME280;44751;52.236;5.178;2023-04-07T09:45:47;101595.56;;;9.86;100.00
58975;BME280;44751;52.236;5.178;2023-04-07T09:48:20;101599.34;;;9.93;100.00
58975;BME280;44751;52.236;5.178;2023-04-07T09:50:48;101591.53;;;10.08;100.00
58975;BME280;44751;52.236;5.178;2023-04-07T09:53:17;101590.03;;;9.87;100.00
58975;BME280;44751;52.236;5.178;2023-04-07T09:55:49;101595.16;;;9.99;100.00
58975;BME280;44751;52.236;5.178;2023-04-07T09:58:16;101600.78;;;10.05;100.00
58975;BME280;44751;52.236;5.178;2023-04-07T10:00:44;101595.44;;;10.14;100.00
58975;BME280;44751;52.236;5.178;2023-04-07T10:03:11;101598.63;;;10.09;100.00
58975;BME280;44751;52.236;5.178;2023-04-07T10:05:43;101598.94;;;10.06;100.00
58975;BME280;44751;52.236;5.178;2023-04-07T10:08:11;101603.47;;;10.05;100.00
58975;BME280;44751;52.236;5.178;2023-04-07T10:10:41;101599.72;;;9.98;100.00
58975;BME280;44751;52.236;5.178;2023-04-07T10:13:18;101614.19;;;9.97;100.00
58975;BME280;44751;52.236;5.178;2023-04-07T10:15:46;101600.09;;;10.03;100.00
58975;BME280;44751;52.236;5.178;2023-04-07T10:18:15;101606.13;;;10.24;100.00
58975;BME280;44751;52.236;5.178;2023-04-07T10:20:48;101610.50;;;10.25;100.00
58975;BME280;44751;52.236;5.178;2023-04-07T10:23:24;101603.63;;;10.04;100.00
58975;BME280;44751;52.236;5.178;2023-04-07T10:25:52;101607.66;;;10.26;100.00
58975;BME280;44751;52.236;5.178;2023-04-07T10:28:23;101606.16;;;10.50;100.00
58975;BME280;44751;52.236;5.178;2023-04-07T10:31:07;101617.44;;;10.45;100.00
58975;BME280;44751;52.236;5.178;2023-04-07T10:33:49;101623.06;;;10.34;100.00
58975;BME280;44751;52.236;5.178;2023-04-07T10:36:20;101628.63;;;10.59;100.00
58975;BME280;44751;52.236;5.178;2023-04-07T10:41:40;101627.50;;;10.43;100.00
58975;BME280;44751;52.236;5.178;2023-04-07T10:44:09;101643.75;;;10.52;100.00
58975;BME280;44751;52.236;5.178;2023-04-07T10:49:26;101640.06;;;10.34;100.00
58975;BME280;44751;52.236;5.178;2023-04-07T10:54:39;101641.91;;;10.52;100.00
58975;BME280;44751;52.236;5.178;2023-04-07T10:57:11;101640.53;;;10.48;100.00
58975;BME280;44751;52.236;5.178;2023-04-07T11:02:34;101648.00;;;10.89;100.00
58975;BME280;44751;52.236;5.178;2023-04-07T11:05:01;101644.38;;;11.07;100.00
58975;BME280;44751;52.236;5.178;2023-04-07T11:07:45;101645.97;;;10.83;100.00
58975;BME280;44751;52.236;5.178;2023-04-07T11:10:13;101651.41;;;10.91;100.00
58975;BME280;44751;52.236;5.178;2023-04-07T11:12:41;101644.13;;;11.27;100.00
58975;BME280;44751;52.236;5.178;2023-04-07T11:15:21;101659.47;;;11.34;100.00
58975;BME280;44751;52.236;5.178;2023-04-07T11:20:54;101650.03;;;11.39;100.00
58975;BME280;44751;52.236;5.178;2023-04-07T11:23:24;101657.22;;;11.13;100.00
58975;BME280;44751;52.236;5.178;2023-04-07T11:26:00;101657.78;;;10.82;100.00
58975;BME280;44751;52.236;5.178;2023-04-07T11:28:28;101657.66;;;10.92;100.00
58975;BME280;44751;52.236;5.178;2023-04-07T11:30:55;101657.22;;;11.13;100.00
58975;BME280;44751;52.236;5.178;2023-04-07T11:33:25;101651.91;;;10.95;100.00
58975;BME280;44751;52.236;5.178;2023-04-07T11:36:00;101654.72;;;11.20;100.00
58975;BME280;44751;52.236;5.178;2023-04-07T11:38:33;101656.81;;;10.91;100.00
58975;BME280;44751;52.236;5.178;2023-04-07T11:41:09;101663.50;;;10.52;100.00
58975;BME280;44751;52.236;5.178;2023-04-07T11:43:36;101663.59;;;10.69;100.00
58975;BME280;44751;52.236;5.178;2023-04-07T11:48:34;101670.63;;;10.62;100.00
58975;BME280;44751;52.236;5.178;2023-04-07T11:51:02;101668.84;;;10.70;100.00
58975;BME280;44751;52.236;5.178;2023-04-07T11:53:32;101675.41;;;10.68;100.00
58975;BME280;44751;52.236;5.178;2023-04-07T11:56:10;101676.06;;;10.43;100.00
58975;BME280;44751;52.236;5.178;2023-04-07T11:58:51;101676.50;;;10.57;100.00
58975;BME280;44751;52.236;5.178;2023-04-07T12:01:20;101672.66;;;10.59;100.00
58975;BME280;44751;52.236;5.178;2023-04-07T12:04:01;101684.59;;;10.57;100.00
58975;BME280;44751;52.236;5.178;2023-04-07T12:06:30;101679.19;;;10.57;100.00
58975;BME280;44751;52.236;5.178;2023-04-07T12:08:59;101688.56;;;10.71;100.00
58975;BME280;44751;52.236;5.178;2023-04-07T12:11:27;101691.31;;;10.79;100.00
58975;BME280;44751;52.236;5.178;2023-04-07T12:14:07;101682.44;;;10.61;100.00
58975;BME280;44751;52.236;5.178;2023-04-07T12:16:37;101685.19;;;10.69;100.00
58975;BME280;44751;52.236;5.178;2023-04-07T12:19:06;101683.78;;;10.56;100.00
58975;BME280;44751;52.236;5.178;2023-04-07T12:21:36;101691.88;;;10.56;100.00
58975;BME280;44751;52.236;5.178;2023-04-07T12:24:02;101687.25;;;10.30;100.00
58975;BME280;44751;52.236;5.178;2023-04-07T12:26:29;101691.72;;;10.40;100.00
58975;BME280;44751;52.236;5.178;2023-04-07T12:28:55;101702.09;;;10.53;100.00
58975;BME280;44751;52.236;5.178;2023-04-07T12:31:25;101698.81;;;10.41;100.00
58975;BME280;44751;52.236;5.178;2023-04-07T12:33:54;101704.13;;;10.32;100.00
58975;BME280;44751;52.236;5.178;2023-04-07T12:36:22;101702.53;;;10.22;100.00
58975;BME280;44751;52.236;5.178;2023-04-07T12:38:48;101706.41;;;10.19;100.00
58975;BME280;44751;52.236;5.178;2023-04-07T12:41:15;101709.19;;;10.09;100.00
58975;BME280;44751;52.236;5.178;2023-04-07T12:43:44;101720.56;;;10.21;100.00
58975;BME280;44751;52.236;5.178;2023-04-07T12:46:13;101713.88;;;10.07;100.00
58975;BME280;44751;52.236;5.178;2023-04-07T12:48:39;101714.84;;;10.42;100.00
58975;BME280;44751;52.236;5.178;2023-04-07T12:51:06;101719.63;;;10.49;100.00
58975;BME280;44751;52.236;5.178;2023-04-07T12:53:33;101719.31;;;10.52;100.00
58975;BME280;44751;52.236;5.178;2023-04-07T12:56:02;101718.34;;;10.43;100.00
58975;BME280;44751;52.236;5.178;2023-04-07T12:58:31;101715.38;;;10.46;100.00
58975;BME280;44751;52.236;5.178;2023-04-07T13:01:00;101720.84;;;10.54;100.00
58975;BME280;44751;52.236;5.178;2023-04-07T13:03:27;101715.44;;;10.36;100.00
58975;BME280;44751;52.236;5.178;2023-04-07T13:05:54;101717.78;;;10.49;100.00
58975;BME280;44751;52.236;5.178;2023-04-07T13:08:31;101725.84;;;10.67;100.00
58975;BME280;44751;52.236;5.178;2023-04-07T13:10:57;101732.75;;;10.70;100.00
58975;BME280;44751;52.236;5.178;2023-04-07T13:13:24;101729.84;;;10.63;100.00
58975;BME280;44751;52.236;5.178;2023-04-07T13:15:56;101721.50;;;10.75;100.00
58975;BME280;44751;52.236;5.178;2023-04-07T13:18:26;101734.72;;;11.13;100.00
58975;BME280;44751;52.236;5.178;2023-04-07T13:20:53;101726.88;;;11.01;100.00
58975;BME280;44751;52.236;5.178;2023-04-07T13:23:19;101728.22;;;10.97;100.00
58975;BME280;44751;52.236;5.178;2023-04-07T13:25:46;101725.72;;;10.77;100.00
58975;BME280;44751;52.236;5.178;2023-04-07T13:28:12;101728.16;;;10.62;100.00
58975;BME280;44751;52.236;5.178;2023-04-07T13:30:45;101730.56;;;10.65;100.00
58975;BME280;44751;52.236;5.178;2023-04-07T13:33:14;101727.09;;;10.37;100.00
58975;BME280;44751;52.236;5.178;2023-04-07T13:35:40;101736.97;;;10.28;100.00
58975;BME280;44751;52.236;5.178;2023-04-07T13:38:07;101732.34;;;10.20;100.00
58975;BME280;44751;52.236;5.178;2023-04-07T13:41:11;101736.72;;;10.39;100.00
58975;BME280;44751;52.236;5.178;2023-04-07T13:43:56;101730.41;;;10.12;100.00
58975;BME280;44751;52.236;5.178;2023-04-07T13:46:26;101737.81;;;10.28;100.00
58975;BME280;44751;52.236;5.178;2023-04-07T13:49:07;101731.72;;;10.26;100.00
58975;BME280;44751;52.236;5.178;2023-04-07T13:51:37;101736.66;;;10.31;100.00
58975;BME280;44751;52.236;5.178;2023-04-07T13:54:04;101742.56;;;10.34;100.00
58975;BME280;44751;52.236;5.178;2023-04-07T13:56:36;101741.28;;;10.20;100.00
58975;BME280;44751;52.236;5.178;2023-04-07T13:59:07;101740.53;;;10.10;100.00
58975;BME280;44751;52.236;5.178;2023-04-07T14:01:34;101738.06;;;9.99;100.00
58975;BME280;44751;52.236;5.178;2023-04-07T14:04:04;101746.84;;;10.19;100.00
58975;BME280;44751;52.236;5.178;2023-04-07T14:06:38;101748.31;;;10.31;100.00
58975;BME280;44751;52.236;5.178;2023-04-07T14:09:04;101748.38;;;10.22;100.00
58975;BME280;44751;52.236;5.178;2023-04-07T14:11:32;101742.22;;;10.11;100.00
58975;BME280;44751;52.236;5.178;2023-04-07T14:13:59;101747.75;;;10.10;100.00
58975;BME280;44751;52.236;5.178;2023-04-07T14:16:30;101743.00;;;10.03;100.00
58975;BME280;44751;52.236;5.178;2023-04-07T14:18:59;101749.69;;;9.99;100.00
58975;BME280;44751;52.236;5.178;2023-04-07T14:21:26;101747.53;;;10.03;100.00
58975;BME280;44751;52.236;5.178;2023-04-07T14:23:55;101755.53;;;9.94;100.00
58975;BME280;44751;52.236;5.178;2023-04-07T14:26:22;101750.75;;;10.06;100.00
58975;BME280;44751;52.236;5.178;2023-04-07T14:28:50;101743.22;;;10.10;100.00
58975;BME280;44751;52.236;5.178;2023-04-07T14:31:20;101751.00;;;10.13;100.00
58975;BME280;44751;52.236;5.178;2023-04-07T14:33:46;101761.47;;;10.16;100.00
58975;BME280;44751;52.236;5.178;2023-04-07T14:36:14;101759.78;;;10.15;100.00
58975;BME280;44751;52.236;5.178;2023-04-07T14:38:44;101756.84;;;10.27;100.00
58975;BME280;44751;52.236;5.178;2023-04-07T14:41:11;101742.84;;;10.23;100.00
58975;BME280;44751;52.236;5.178;2023-04-07T14:43:38;101751.31;;;10.10;100.00
58975;BME280;44751;52.236;5.178;2023-04-07T14:46:05;101761.09;;;10.29;100.00
58975;BME280;44751;52.236;5.178;2023-04-07T14:48:32;101754.75;;;10.20;100.00
58975;BME280;44751;52.236;5.178;2023-04-07T14:50:59;101753.13;;;10.28;100.00
58975;BME280;44751;52.236;5.178;2023-04-07T14:53:26;101752.84;;;10.31;100.00
58975;BME280;44751;52.236;5.178;2023-04-07T14:56:08;101757.72;;;10.09;100.00
58975;BME280;44751;52.236;5.178;2023-04-07T14:58:42;101760.63;;;10.16;100.00
58975;BME280;44751;52.236;5.178;2023-04-07T15:01:11;101755.00;;;10.09;100.00
58975;BME280;44751;52.236;5.178;2023-04-07T15:03:37;101767.72;;;10.17;100.00
58975;BME280;44751;52.236;5.178;2023-04-07T15:06:08;101765.72;;;10.19;100.00
58975;BME280;44751;52.236;5.178;2023-04-07T15:08:35;101782.66;;;10.11;100.00
58975;BME280;44751;52.236;5.178;2023-04-07T15:11:07;101766.31;;;10.13;100.00
58975;BME280;44751;52.236;5.178;2023-04-07T15:13:34;101770.31;;;9.90;100.00
58975;BME280;44751;52.236;5.178;2023-04-07T15:16:11;101782.94;;;9.90;100.00
58975;BME280;44751;52.236;5.178;2023-04-07T15:18:40;101781.03;;;10.00;100.00
58975;BME280;44751;52.236;5.178;2023-04-07T15:21:08;101780.66;;;9.95;100.00
58975;BME280;44751;52.236;5.178;2023-04-07T15:23:48;101782.56;;;10.03;100.00
58975;BME280;44751;52.236;5.178;2023-04-07T15:26:15;101789.66;;;10.04;100.00
58975;BME280;44751;52.236;5.178;2023-04-07T15:28:42;101792.09;;;9.79;100.00
58975;BME280;44751;52.236;5.178;2023-04-07T15:31:08;101795.22;;;9.74;100.00
58975;BME280;44751;52.236;5.178;2023-04-07T15:33:38;101788.28;;;9.72;100.00
58975;BME280;44751;52.236;5.178;2023-04-07T15:36:08;101786.59;;;9.71;100.00
58975;BME280;44751;52.236;5.178;2023-04-07T15:38:38;101793.03;;;9.60;100.00
58975;BME280;44751;52.236;5.178;2023-04-07T15:41:05;101788.47;;;9.60;100.00
58975;BME280;44751;52.236;5.178;2023-04-07T15:43:39;101799.78;;;9.74;100.00
58975;BME280;44751;52.236;5.178;2023-04-07T15:46:05;101805.84;;;9.76;100.00
58975;BME280;44751;52.236;5.178;2023-04-07T15:48:32;101799.88;;;9.82;100.00
58975;BME280;44751;52.236;5.178;2023-04-07T15:50:58;101798.56;;;9.86;100.00
58975;BME280;44751;52.236;5.178;2023-04-07T15:53:25;101790.69;;;9.75;100.00
58975;BME280;44751;52.236;5.178;2023-04-07T15:55:52;101797.91;;;9.74;100.00
58975;BME280;44751;52.236;5.178;2023-04-07T15:58:23;101798.72;;;9.56;100.00
58975;BME280;44751;52.236;5.178;2023-04-07T16:00:49;101795.84;;;9.68;100.00
58975;BME280;44751;52.236;5.178;2023-04-07T16:03:16;101806.81;;;9.85;100.00
58975;BME280;44751;52.236;5.178;2023-04-07T16:05:43;101798.69;;;9.66;100.00
58975;BME280;44751;52.236;5.178;2023-04-07T16:08:09;101800.94;;;9.71;100.00
58975;BME280;44751;52.236;5.178;2023-04-07T16:10:36;101803.81;;;9.60;100.00
58975;BME280;44751;52.236;5.178;2023-04-07T16:13:08;101801.16;;;9.50;100.00
58975;BME280;44751;52.236;5.178;2023-04-07T16:15:35;101816.00;;;9.64;100.00
58975;BME280;44751;52.236;5.178;2023-04-07T16:18:05;101802.31;;;9.75;100.00
58975;BME280;44751;52.236;5.178;2023-04-07T16:20:35;101808.69;;;9.74;100.00
58975;BME280;44751;52.236;5.178;2023-04-07T16:23:01;101806.00;;;9.74;100.00
58975;BME280;44751;52.236;5.178;2023-04-07T16:25:28;101808.88;;;9.73;100.00
58975;BME280;44751;52.236;5.178;2023-04-07T16:27:55;101811.53;;;10.01;100.00
58975;BME280;44751;52.236;5.178;2023-04-07T16:30:22;101808.75;;;10.11;100.00
58975;BME280;44751;52.236;5.178;2023-04-07T16:32:49;101817.25;;;10.16;100.00
58975;BME280;44751;52.236;5.178;2023-04-07T16:35:19;101808.94;;;10.09;100.00
58975;BME280;44751;52.236;5.178;2023-04-07T16:37:45;101815.47;;;10.06;100.00
58975;BME280;44751;52.236;5.178;2023-04-07T16:40:14;101824.91;;;9.92;100.00
58975;BME280;44751;52.236;5.178;2023-04-07T16:42:40;101833.91;;;9.83;100.00
58975;BME280;44751;52.236;5.178;2023-04-07T16:45:07;101833.06;;;9.82;100.00
58975;BME280;44751;52.236;5.178;2023-04-07T16:47:36;101830.00;;;9.95;100.00
58975;BME280;44751;52.236;5.178;2023-04-07T16:50:04;101833.13;;;10.01;100.00
58975;BME280;44751;52.236;5.178;2023-04-07T16:52:31;101842.13;;;10.10;100.00
58975;BME280;44751;52.236;5.178;2023-04-07T16:54:59;101849.97;;;10.03;100.00
58975;BME280;44751;52.236;5.178;2023-04-07T16:57:25;101851.50;;;10.05;100.00
58975;BME280;44751;52.236;5.178;2023-04-07T16:59:54;101848.59;;;9.99;100.00
58975;BME280;44751;52.236;5.178;2023-04-07T17:02:23;101847.56;;;10.00;100.00
58975;BME280;44751;52.236;5.178;2023-04-07T17:04:51;101849.44;;;9.99;100.00
58975;BME280;44751;52.236;5.178;2023-04-07T17:07:18;101853.00;;;9.90;100.00
58975;BME280;44751;52.236;5.178;2023-04-07T17:09:44;101846.66;;;9.91;100.00
58975;BME280;44751;52.236;5.178;2023-04-07T17:12:13;101857.00;;;9.86;100.00
58975;BME280;44751;52.236;5.178;2023-04-07T17:14:40;101866.34;;;9.91;100.00
58975;BME280;44751;52.236;5.178;2023-04-07T17:17:06;101866.97;;;9.85;100.00
58975;BME280;44751;52.236;5.178;2023-04-07T17:19:33;101861.19;;;9.70;100.00
58975;BME280;44751;52.236;5.178;2023-04-07T17:22:00;101871.13;;;9.69;100.00
58975;BME280;44751;52.236;5.178;2023-04-07T17:24:27;101875.22;;;9.74;100.00
58975;BME280;44751;52.236;5.178;2023-04-07T17:26:58;101874.78;;;9.78;100.00
58975;BME280;44751;52.236;5.178;2023-04-07T17:29:24;101879.44;;;9.86;100.00
58975;BME280;44751;52.236;5.178;2023-04-07T17:31:53;101874.34;;;9.83;100.00
58975;BME280;44751;52.236;5.178;2023-04-07T17:34:21;101879.28;;;9.88;100.00
58975;BME280;44751;52.236;5.178;2023-04-07T17:36:50;101889.94;;;9.89;100.00
58975;BME280;44751;52.236;5.178;2023-04-07T17:39:17;101893.00;;;9.94;100.00
58975;BME280;44751;52.236;5.178;2023-04-07T17:41:43;101885.84;;;9.85;100.00
58975;BME280;44751;52.236;5.178;2023-04-07T17:44:11;101893.50;;;9.80;100.00
58975;BME280;44751;52.236;5.178;2023-04-07T17:46:40;101897.91;;;9.81;100.00
58975;BME280;44751;52.236;5.178;2023-04-07T17:49:10;101897.66;;;9.64;100.00
58975;BME280;44751;52.236;5.178;2023-04-07T17:51:36;101901.03;;;9.76;100.00
58975;BME280;44751;52.236;5.178;2023-04-07T17:54:03;101904.09;;;9.91;100.00
58975;BME280;44751;52.236;5.178;2023-04-07T17:56:30;101899.69;;;9.90;100.00
58975;BME280;44751;52.236;5.178;2023-04-07T17:58:57;101906.75;;;10.01;100.00
58975;BME280;44751;52.236;5.178;2023-04-07T18:01:24;101908.94;;;9.88;100.00
58975;BME280;44751;52.236;5.178;2023-04-07T18:03:57;101915.78;;;9.82;100.00
58975;BME280;44751;52.236;5.178;2023-04-07T18:06:24;101915.47;;;9.85;100.00
58975;BME280;44751;52.236;5.178;2023-04-07T18:08:50;101921.41;;;9.89;100.00
58975;BME280;44751;52.236;5.178;2023-04-07T18:11:16;101919.75;;;9.78;100.00
58975;BME280;44751;52.236;5.178;2023-04-07T18:13:43;101922.34;;;9.69;100.00
58975;BME280;44751;52.236;5.178;2023-04-07T18:16:12;101922.44;;;9.78;100.00
58975;BME280;44751;52.236;5.178;2023-04-07T18:18:41;101925.97;;;9.78;100.00
58975;BME280;44751;52.236;5.178;2023-04-07T18:21:08;101933.53;;;9.75;100.00
58975;BME280;44751;52.236;5.178;2023-04-07T18:23:35;101932.66;;;9.74;100.00
58975;BME280;44751;52.236;5.178;2023-04-07T18:26:02;101936.81;;;9.68;100.00
58975;BME280;44751;52.236;5.178;2023-04-07T18:28:30;101931.56;;;9.67;100.00
58975;BME280;44751;52.236;5.178;2023-04-07T18:31:05;101936.81;;;9.68;100.00
58975;BME280;44751;52.236;5.178;2023-04-07T18:33:35;101935.69;;;9.61;100.00
58975;BME280;44751;52.236;5.178;2023-04-07T18:36:06;101944.19;;;9.66;100.00
58975;BME280;44751;52.236;5.178;2023-04-07T18:38:36;101947.03;;;9.65;100.00
58975;BME280;44751;52.236;5.178;2023-04-07T18:41:05;101950.47;;;9.57;100.00
58975;BME280;44751;52.236;5.178;2023-04-07T18:43:32;101949.28;;;9.69;100.00
58975;BME280;44751;52.236;5.178;2023-04-07T18:46:02;101956.28;;;9.52;100.00
58975;BME280;44751;52.236;5.178;2023-04-07T18:48:29;101960.81;;;9.42;100.00
58975;BME280;44751;52.236;5.178;2023-04-07T18:50:56;101953.16;;;9.57;100.00
58975;BME280;44751;52.236;5.178;2023-04-07T18:53:23;101957.00;;;9.45;100.00
58975;BME280;44751;52.236;5.178;2023-04-07T18:55:50;101966.50;;;9.49;100.00
58975;BME280;44751;52.236;5.178;2023-04-07T18:58:23;101964.38;;;9.23;100.00
58975;BME280;44751;52.236;5.178;2023-04-07T19:00:50;101969.06;;;9.30;100.00
58975;BME280;44751;52.236;5.178;2023-04-07T19:03:19;101984.38;;;9.40;100.00
58975;BME280;44751;52.236;5.178;2023-04-07T19:05:45;101976.84;;;9.34;100.00
58975;BME280;44751;52.236;5.178;2023-04-07T19:08:16;101994.41;;;9.28;100.00
58975;BME280;44751;52.236;5.178;2023-04-07T19:10:43;101986.19;;;9.39;100.00
58975;BME280;44751;52.236;5.178;2023-04-07T19:13:09;101993.00;;;9.43;100.00
58975;BME280;44751;52.236;5.178;2023-04-07T19:15:36;101998.38;;;9.34;100.00
58975;BME280;44751;52.236;5.178;2023-04-07T19:18:05;101997.84;;;9.30;100.00
58975;BME280;44751;52.236;5.178;2023-04-07T19:20:35;101989.47;;;9.33;100.00
58975;BME280;44751;52.236;5.178;2023-04-07T19:23:01;101993.56;;;9.47;100.00
58975;BME280;44751;52.236;5.178;2023-04-07T19:25:28;102007.19;;;9.46;100.00
58975;BME280;44751;52.236;5.178;2023-04-07T19:27:55;102009.03;;;9.35;100.00
58975;BME280;44751;52.236;5.178;2023-04-07T19:30:22;102005.50;;;9.15;100.00